sensor_id;sensor_type;location;lat;lon;timestamp;P1;durP1;ratioP1;P2;durP2;ratioP2
65581;SDS011;52231;40.090;18.348;2023-06-10T00:00:08;29.25;;;11.45;;
65581;SDS011;52231;40.090;18.348;2023-06-10T00:02:40;27.20;;;11.27;;
65581;SDS011;52231;40.090;18.348;2023-06-10T00:05:08;28.85;;;12.70;;
65581;SDS011;52231;40.090;18.348;2023-06-10T00:07:37;26.48;;;11.77;;
65581;SDS011;52231;40.090;18.348;2023-06-10T00:10:05;21.55;;;9.88;;
65581;SDS011;52231;40.090;18.348;2023-06-10T00:12:34;21.13;;;10.52;;
65581;SDS011;52231;40.090;18.348;2023-06-10T00:15:05;26.30;;;10.25;;
65581;SDS011;52231;40.090;18.348;2023-06-10T00:17:34;27.20;;;12.07;;
65581;SDS011;52231;40.090;18.348;2023-06-10T00:20:07;29.85;;;11.80;;
65581;SDS011;52231;40.090;18.348;2023-06-10T00:22:38;29.13;;;10.30;;
65581;SDS011;52231;40.090;18.348;2023-06-10T00:25:06;25.38;;;10.68;;
65581;SDS011;52231;40.090;18.348;2023-06-10T00:27:36;27.63;;;11.05;;
65581;SDS011;52231;40.090;18.348;2023-06-10T00:30:04;25.92;;;10.35;;
65581;SDS011;52231;40.090;18.348;2023-06-10T00:32:34;26.33;;;11.05;;
65581;SDS011;52231;40.090;18.348;2023-06-10T00:35:04;26.00;;;9.88;;
65581;SDS011;52231;40.090;18.348;2023-06-10T00:37:33;23.65;;;10.77;;
65581;SDS011;52231;40.090;18.348;2023-06-10T00:40:05;22.27;;;9.90;;
65581;SDS011;52231;40.090;18.348;2023-06-10T00:42:36;19.92;;;8.32;;
65581;SDS011;52231;40.090;18.348;2023-06-10T00:45:05;22.83;;;9.43;;
65581;SDS011;52231;40.090;18.348;2023-06-10T00:47:35;18.17;;;8.90;;
65581;SDS011;52231;40.090;18.348;2023-06-10T00:50:05;20.10;;;8.30;;
65581;SDS011;52231;40.090;18.348;2023-06-10T00:52:33;20.63;;;8.98;;
65581;SDS011;52231;40.090;18.348;2023-06-10T00:55:03;18.08;;;8.07;;
65581;SDS011;52231;40.090;18.348;2023-06-10T00:57:32;17.92;;;8.30;;
65581;SDS011;52231;40.090;18.348;2023-06-10T01:00:00;19.48;;;7.75;;
65581;SDS011;52231;40.090;18.348;2023-06-10T01:02:28;20.25;;;8.55;;
65581;SDS011;52231;40.090;18.348;2023-06-10T01:04:58;17.48;;;8.95;;
65581;SDS011;52231;40.090;18.348;2023-06-10T01:13:10;23.45;;;10.30;;
65581;SDS011;52231;40.090;18.348;2023-06-10T01:15:41;22.65;;;9.45;;
65581;SDS011;52231;40.090;18.348;2023-06-10T01:18:12;20.60;;;9.65;;
65581;SDS011;52231;40.090;18.348;2023-06-10T01:20:43;27.67;;;11.20;;
65581;SDS011;52231;40.090;18.348;2023-06-10T01:23:11;27.77;;;11.40;;
65581;SDS011;52231;40.090;18.348;2023-06-10T01:25:41;25.63;;;11.10;;
65581;SDS011;52231;40.090;18.348;2023-06-10T01:28:42;18.52;;;9.13;;
65581;SDS011;52231;40.090;18.348;2023-06-10T01:31:30;19.23;;;9.30;;
65581;SDS011;52231;40.090;18.348;2023-06-10T01:34:10;26.25;;;10.95;;
65581;SDS011;52231;40.090;18.348;2023-06-10T01:36:40;24.63;;;9.30;;
65581;SDS011;52231;40.090;18.348;2023-06-10T01:39:10;18.10;;;8.35;;
65581;SDS011;52231;40.090;18.348;2023-06-10T01:41:41;18.05;;;8.27;;
65581;SDS011;52231;40.090;18.348;2023-06-10T01:44:10;17.00;;;9.13;;
65581;SDS011;52231;40.090;18.348;2023-06-10T01:46:40;18.83;;;8.57;;
65581;SDS011;52231;40.090;18.348;2023-06-10T01:49:11;20.10;;;9.13;;
65581;SDS011;52231;40.090;18.348;2023-06-10T01:51:39;15.98;;;7.97;;
65581;SDS011;52231;40.090;18.348;2023-06-10T01:54:07;19.17;;;7.90;;
65581;SDS011;52231;40.090;18.348;2023-06-10T01:56:36;20.33;;;9.15;;
65581;SDS011;52231;40.090;18.348;2023-06-10T01:59:07;20.15;;;9.40;;
65581;SDS011;52231;40.090;18.348;2023-06-10T02:01:37;16.30;;;7.88;;
65581;SDS011;52231;40.090;18.348;2023-06-10T02:04:05;14.95;;;8.00;;
65581;SDS011;52231;40.090;18.348;2023-06-10T02:06:33;17.88;;;8.52;;
65581;SDS011;52231;40.090;18.348;2023-06-10T02:09:03;18.30;;;8.27;;
65581;SDS011;52231;40.090;18.348;2023-06-10T02:11:31;16.23;;;8.05;;
65581;SDS011;52231;40.090;18.348;2023-06-10T02:13:59;15.07;;;6.97;;
65581;SDS011;52231;40.090;18.348;2023-06-10T02:16:27;19.65;;;8.15;;
65581;SDS011;52231;40.090;18.348;2023-06-10T02:18:55;17.90;;;8.90;;
65581;SDS011;52231;40.090;18.348;2023-06-10T02:21:23;18.83;;;7.75;;
65581;SDS011;52231;40.090;18.348;2023-06-10T02:23:52;16.92;;;7.90;;
65581;SDS011;52231;40.090;18.348;2023-06-10T02:26:20;13.48;;;7.75;;
65581;SDS011;52231;40.090;18.348;2023-06-10T02:28:48;14.98;;;6.80;;
65581;SDS011;52231;40.090;18.348;2023-06-10T02:31:17;13.52;;;6.60;;
65581;SDS011;52231;40.090;18.348;2023-06-10T02:33:45;14.73;;;7.68;;
65581;SDS011;52231;40.090;18.348;2023-06-10T02:36:14;16.35;;;7.57;;
65581;SDS011;52231;40.090;18.348;2023-06-10T02:38:43;16.02;;;6.68;;
65581;SDS011;52231;40.090;18.348;2023-06-10T02:41:11;12.73;;;6.65;;
65581;SDS011;52231;40.090;18.348;2023-06-10T02:43:40;15.35;;;6.90;;
65581;SDS011;52231;40.090;18.348;2023-06-10T02:46:09;13.18;;;6.88;;
65581;SDS011;52231;40.090;18.348;2023-06-10T02:51:12;14.73;;;6.38;;
65581;SDS011;52231;40.090;18.348;2023-06-10T02:53:44;16.77;;;6.53;;
65581;SDS011;52231;40.090;18.348;2023-06-10T02:56:16;16.50;;;7.03;;
65581;SDS011;52231;40.090;18.348;2023-06-10T02:58:44;15.88;;;8.10;;
65581;SDS011;52231;40.090;18.348;2023-06-10T03:01:15;16.83;;;8.52;;
65581;SDS011;52231;40.090;18.348;2023-06-10T03:03:52;17.02;;;7.53;;
65581;SDS011;52231;40.090;18.348;2023-06-10T03:08:53;13.15;;;6.88;;
65581;SDS011;52231;40.090;18.348;2023-06-10T03:13:52;15.55;;;7.78;;
65581;SDS011;52231;40.090;18.348;2023-06-10T03:20:51;17.25;;;6.75;;
65581;SDS011;52231;40.090;18.348;2023-06-10T03:23:21;16.63;;;6.95;;
65581;SDS011;52231;40.090;18.348;2023-06-10T03:25:50;17.00;;;8.02;;
65581;SDS011;52231;40.090;18.348;2023-06-10T03:28:19;18.05;;;7.57;;
65581;SDS011;52231;40.090;18.348;2023-06-10T03:30:48;18.30;;;7.72;;
65581;SDS011;52231;40.090;18.348;2023-06-10T03:33:17;16.20;;;6.60;;
65581;SDS011;52231;40.090;18.348;2023-06-10T03:35:45;13.65;;;6.45;;
65581;SDS011;52231;40.090;18.348;2023-06-10T03:38:14;16.13;;;6.95;;
65581;SDS011;52231;40.090;18.348;2023-06-10T03:40:42;16.23;;;7.60;;
65581;SDS011;52231;40.090;18.348;2023-06-10T03:43:10;19.95;;;8.20;;
65581;SDS011;52231;40.090;18.348;2023-06-10T03:45:39;18.38;;;7.10;;
65581;SDS011;52231;40.090;18.348;2023-06-10T03:48:09;19.20;;;7.90;;
65581;SDS011;52231;40.090;18.348;2023-06-10T03:50:45;18.65;;;7.93;;
65581;SDS011;52231;40.090;18.348;2023-06-10T03:53:15;17.95;;;8.68;;
65581;SDS011;52231;40.090;18.348;2023-06-10T03:55:44;14.80;;;6.90;;
65581;SDS011;52231;40.090;18.348;2023-06-10T03:58:15;21.08;;;8.68;;
65581;SDS011;52231;40.090;18.348;2023-06-10T04:00:43;18.13;;;8.52;;
65581;SDS011;52231;40.090;18.348;2023-06-10T04:03:12;18.88;;;7.90;;
65581;SDS011;52231;40.090;18.348;2023-06-10T04:10:31;16.98;;;8.27;;
65581;SDS011;52231;40.090;18.348;2023-06-10T04:13:01;17.23;;;7.40;;
65581;SDS011;52231;40.090;18.348;2023-06-10T04:15:34;15.73;;;6.32;;
65581;SDS011;52231;40.090;18.348;2023-06-10T04:18:08;16.20;;;6.10;;
65581;SDS011;52231;40.090;18.348;2023-06-10T04:23:05;14.70;;;6.78;;
65581;SDS011;52231;40.090;18.348;2023-06-10T04:25:33;13.98;;;6.43;;
65581;SDS011;52231;40.090;18.348;2023-06-10T04:28:02;12.60;;;6.25;;
65581;SDS011;52231;40.090;18.348;2023-06-10T04:30:31;13.70;;;7.10;;
65581;SDS011;52231;40.090;18.348;2023-06-10T04:33:01;15.52;;;6.35;;
65581;SDS011;52231;40.090;18.348;2023-06-10T04:35:30;13.50;;;6.72;;
65581;SDS011;52231;40.090;18.348;2023-06-10T04:38:00;16.23;;;7.38;;
65581;SDS011;52231;40.090;18.348;2023-06-10T04:40:32;13.13;;;5.93;;
65581;SDS011;52231;40.090;18.348;2023-06-10T04:43:01;14.65;;;6.85;;
65581;SDS011;52231;40.090;18.348;2023-06-10T04:45:29;14.23;;;6.13;;
65581;SDS011;52231;40.090;18.348;2023-06-10T04:47:58;14.50;;;6.47;;
65581;SDS011;52231;40.090;18.348;2023-06-10T04:50:26;13.40;;;6.32;;
65581;SDS011;52231;40.090;18.348;2023-06-10T04:52:54;14.07;;;7.05;;
65581;SDS011;52231;40.090;18.348;2023-06-10T04:55:24;15.88;;;6.32;;
65581;SDS011;52231;40.090;18.348;2023-06-10T04:57:53;13.48;;;6.43;;
65581;SDS011;52231;40.090;18.348;2023-06-10T05:00:21;14.05;;;6.93;;
65581;SDS011;52231;40.090;18.348;2023-06-10T05:02:50;13.65;;;6.45;;
65581;SDS011;52231;40.090;18.348;2023-06-10T05:05:19;11.73;;;5.88;;
65581;SDS011;52231;40.090;18.348;2023-06-10T05:07:47;12.25;;;6.22;;
65581;SDS011;52231;40.090;18.348;2023-06-10T05:10:15;11.60;;;5.88;;
65581;SDS011;52231;40.090;18.348;2023-06-10T05:15:11;15.82;;;5.97;;
65581;SDS011;52231;40.090;18.348;2023-06-10T05:17:40;13.55;;;6.05;;
65581;SDS011;52231;40.090;18.348;2023-06-10T05:22:36;12.20;;;5.43;;
65581;SDS011;52231;40.090;18.348;2023-06-10T05:25:05;10.93;;;5.53;;
65581;SDS011;52231;40.090;18.348;2023-06-10T05:27:34;12.73;;;5.63;;
65581;SDS011;52231;40.090;18.348;2023-06-10T05:30:03;11.77;;;5.03;;
65581;SDS011;52231;40.090;18.348;2023-06-10T05:32:32;10.32;;;5.35;;
65581;SDS011;52231;40.090;18.348;2023-06-10T05:35:00;10.38;;;4.38;;
65581;SDS011;52231;40.090;18.348;2023-06-10T05:37:29;9.90;;;5.22;;
65581;SDS011;52231;40.090;18.348;2023-06-10T05:39:57;9.65;;;4.57;;
65581;SDS011;52231;40.090;18.348;2023-06-10T05:42:26;11.27;;;4.85;;
65581;SDS011;52231;40.090;18.348;2023-06-10T05:44:54;10.63;;;4.60;;
65581;SDS011;52231;40.090;18.348;2023-06-10T05:47:30;8.73;;;4.70;;
65581;SDS011;52231;40.090;18.348;2023-06-10T05:49:58;10.73;;;3.55;;
65581;SDS011;52231;40.090;18.348;2023-06-10T05:52:27;11.00;;;4.32;;
65581;SDS011;52231;40.090;18.348;2023-06-10T05:54:55;10.07;;;4.18;;
65581;SDS011;52231;40.090;18.348;2023-06-10T05:57:23;8.73;;;4.25;;
65581;SDS011;52231;40.090;18.348;2023-06-10T05:59:52;7.75;;;4.30;;
65581;SDS011;52231;40.090;18.348;2023-06-10T06:02:20;9.02;;;4.40;;
65581;SDS011;52231;40.090;18.348;2023-06-10T06:07:48;8.40;;;3.80;;
65581;SDS011;52231;40.090;18.348;2023-06-10T06:10:17;9.35;;;3.78;;
65581;SDS011;52231;40.090;18.348;2023-06-10T06:12:45;9.18;;;4.03;;
65581;SDS011;52231;40.090;18.348;2023-06-10T06:15:33;9.25;;;4.07;;
65581;SDS011;52231;40.090;18.348;2023-06-10T06:18:04;9.73;;;3.75;;
65581;SDS011;52231;40.090;18.348;2023-06-10T06:20:55;7.90;;;3.83;;
65581;SDS011;52231;40.090;18.348;2023-06-10T06:23:23;11.07;;;3.50;;
65581;SDS011;52231;40.090;18.348;2023-06-10T06:25:52;11.45;;;3.08;;
65581;SDS011;52231;40.090;18.348;2023-06-10T06:28:20;9.20;;;3.60;;
65581;SDS011;52231;40.090;18.348;2023-06-10T06:30:53;7.93;;;3.65;;
65581;SDS011;52231;40.090;18.348;2023-06-10T06:33:21;7.82;;;3.33;;
65581;SDS011;52231;40.090;18.348;2023-06-10T06:35:49;9.32;;;3.40;;
65581;SDS011;52231;40.090;18.348;2023-06-10T06:38:17;7.57;;;3.13;;
65581;SDS011;52231;40.090;18.348;2023-06-10T06:40:46;8.43;;;3.58;;
65581;SDS011;52231;40.090;18.348;2023-06-10T06:43:15;8.30;;;3.40;;
65581;SDS011;52231;40.090;18.348;2023-06-10T06:46:03;8.18;;;3.40;;
65581;SDS011;52231;40.090;18.348;2023-06-10T06:48:31;9.30;;;3.38;;
65581;SDS011;52231;40.090;18.348;2023-06-10T06:51:03;7.78;;;3.50;;
65581;SDS011;52231;40.090;18.348;2023-06-10T06:53:31;7.10;;;2.97;;
65581;SDS011;52231;40.090;18.348;2023-06-10T06:56:01;7.97;;;2.92;;
65581;SDS011;52231;40.090;18.348;2023-06-10T06:58:30;8.23;;;3.25;;
65581;SDS011;52231;40.090;18.348;2023-06-10T07:00:58;10.20;;;3.40;;
65581;SDS011;52231;40.090;18.348;2023-06-10T07:03:27;8.23;;;3.35;;
65581;SDS011;52231;40.090;18.348;2023-06-10T07:05:55;5.75;;;2.63;;
65581;SDS011;52231;40.090;18.348;2023-06-10T07:08:25;6.78;;;3.20;;
65581;SDS011;52231;40.090;18.348;2023-06-10T07:10:56;6.97;;;3.22;;
65581;SDS011;52231;40.090;18.348;2023-06-10T07:13:24;6.30;;;2.88;;
65581;SDS011;52231;40.090;18.348;2023-06-10T07:15:52;5.97;;;2.78;;
65581;SDS011;52231;40.090;18.348;2023-06-10T07:18:21;5.72;;;2.95;;
65581;SDS011;52231;40.090;18.348;2023-06-10T07:20:50;6.20;;;2.70;;
65581;SDS011;52231;40.090;18.348;2023-06-10T07:23:18;7.05;;;3.05;;
65581;SDS011;52231;40.090;18.348;2023-06-10T07:25:46;6.55;;;3.05;;
65581;SDS011;52231;40.090;18.348;2023-06-10T07:28:15;6.68;;;2.72;;
65581;SDS011;52231;40.090;18.348;2023-06-10T07:30:43;6.05;;;2.83;;
65581;SDS011;52231;40.090;18.348;2023-06-10T07:33:11;6.82;;;3.10;;
65581;SDS011;52231;40.090;18.348;2023-06-10T07:35:40;5.68;;;2.90;;
65581;SDS011;52231;40.090;18.348;2023-06-10T07:38:10;6.90;;;2.70;;
65581;SDS011;52231;40.090;18.348;2023-06-10T07:40:38;8.55;;;2.92;;
65581;SDS011;52231;40.090;18.348;2023-06-10T07:43:06;8.65;;;2.95;;
65581;SDS011;52231;40.090;18.348;2023-06-10T07:45:35;8.15;;;3.20;;
65581;SDS011;52231;40.090;18.348;2023-06-10T07:48:03;7.07;;;3.05;;
65581;SDS011;52231;40.090;18.348;2023-06-10T07:50:32;5.72;;;2.90;;
65581;SDS011;52231;40.090;18.348;2023-06-10T07:53:00;7.05;;;2.47;;
65581;SDS011;52231;40.090;18.348;2023-06-10T07:55:29;6.78;;;2.65;;
65581;SDS011;52231;40.090;18.348;2023-06-10T07:57:57;8.63;;;3.50;;
65581;SDS011;52231;40.090;18.348;2023-06-10T08:00:25;5.95;;;3.05;;
65581;SDS011;52231;40.090;18.348;2023-06-10T08:02:53;7.78;;;2.97;;
65581;SDS011;52231;40.090;18.348;2023-06-10T08:05:23;6.30;;;2.80;;
65581;SDS011;52231;40.090;18.348;2023-06-10T08:07:51;7.20;;;2.90;;
65581;SDS011;52231;40.090;18.348;2023-06-10T08:10:19;6.90;;;3.13;;
65581;SDS011;52231;40.090;18.348;2023-06-10T08:12:47;8.52;;;3.42;;
65581;SDS011;52231;40.090;18.348;2023-06-10T08:15:16;7.50;;;3.25;;
65581;SDS011;52231;40.090;18.348;2023-06-10T08:17:44;7.72;;;3.13;;
65581;SDS011;52231;40.090;18.348;2023-06-10T08:20:12;6.13;;;3.17;;
65581;SDS011;52231;40.090;18.348;2023-06-10T08:22:40;6.32;;;3.03;;
65581;SDS011;52231;40.090;18.348;2023-06-10T08:25:09;7.75;;;3.28;;
65581;SDS011;52231;40.090;18.348;2023-06-10T08:27:37;5.63;;;2.70;;
65581;SDS011;52231;40.090;18.348;2023-06-10T08:30:06;7.88;;;2.78;;
65581;SDS011;52231;40.090;18.348;2023-06-10T08:32:35;5.95;;;2.83;;
65581;SDS011;52231;40.090;18.348;2023-06-10T08:35:04;5.93;;;3.13;;
65581;SDS011;52231;40.090;18.348;2023-06-10T08:37:33;8.13;;;2.75;;
65581;SDS011;52231;40.090;18.348;2023-06-10T08:40:01;7.47;;;2.88;;
65581;SDS011;52231;40.090;18.348;2023-06-10T08:42:38;7.22;;;2.90;;
65581;SDS011;52231;40.090;18.348;2023-06-10T08:45:08;7.47;;;2.72;;
65581;SDS011;52231;40.090;18.348;2023-06-10T08:47:44;9.65;;;3.03;;
65581;SDS011;52231;40.090;18.348;2023-06-10T08:50:14;8.40;;;2.65;;
65581;SDS011;52231;40.090;18.348;2023-06-10T08:52:44;6.05;;;2.85;;
65581;SDS011;52231;40.090;18.348;2023-06-10T08:55:28;8.65;;;2.97;;
65581;SDS011;52231;40.090;18.348;2023-06-10T08:58:04;11.68;;;4.68;;
65581;SDS011;52231;40.090;18.348;2023-06-10T09:00:32;10.32;;;3.30;;
65581;SDS011;52231;40.090;18.348;2023-06-10T09:03:04;7.72;;;3.10;;
65581;SDS011;52231;40.090;18.348;2023-06-10T09:05:33;10.27;;;3.13;;
65581;SDS011;52231;40.090;18.348;2023-06-10T09:08:06;8.35;;;3.10;;
65581;SDS011;52231;40.090;18.348;2023-06-10T09:10:36;7.82;;;2.70;;
65581;SDS011;52231;40.090;18.348;2023-06-10T09:13:05;7.13;;;2.63;;
65581;SDS011;52231;40.090;18.348;2023-06-10T09:15:34;9.82;;;3.10;;
65581;SDS011;52231;40.090;18.348;2023-06-10T09:18:02;10.07;;;2.90;;
65581;SDS011;52231;40.090;18.348;2023-06-10T09:20:32;7.82;;;3.38;;
65581;SDS011;52231;40.090;18.348;2023-06-10T09:23:00;8.88;;;2.95;;
65581;SDS011;52231;40.090;18.348;2023-06-10T09:25:36;12.38;;;6.13;;
65581;SDS011;52231;40.090;18.348;2023-06-10T09:28:12;7.60;;;3.17;;
65581;SDS011;52231;40.090;18.348;2023-06-10T09:30:42;6.75;;;2.95;;
65581;SDS011;52231;40.090;18.348;2023-06-10T09:33:12;6.25;;;2.60;;
65581;SDS011;52231;40.090;18.348;2023-06-10T09:35:45;7.72;;;2.83;;
65581;SDS011;52231;40.090;18.348;2023-06-10T09:38:19;5.85;;;2.90;;
65581;SDS011;52231;40.090;18.348;2023-06-10T09:40:52;5.28;;;2.90;;
65581;SDS011;52231;40.090;18.348;2023-06-10T09:43:21;8.18;;;4.32;;
65581;SDS011;52231;40.090;18.348;2023-06-10T09:45:50;10.05;;;3.38;;
65581;SDS011;52231;40.090;18.348;2023-06-10T09:48:21;12.07;;;10.13;;
65581;SDS011;52231;40.090;18.348;2023-06-10T09:50:51;6.18;;;2.72;;
65581;SDS011;52231;40.090;18.348;2023-06-10T09:53:20;10.80;;;3.40;;
65581;SDS011;52231;40.090;18.348;2023-06-10T09:55:48;10.30;;;3.78;;
65581;SDS011;52231;40.090;18.348;2023-06-10T09:58:17;13.50;;;4.53;;
65581;SDS011;52231;40.090;18.348;2023-06-10T10:00:48;10.13;;;3.95;;
65581;SDS011;52231;40.090;18.348;2023-06-10T10:03:22;13.20;;;4.43;;
65581;SDS011;52231;40.090;18.348;2023-06-10T10:05:57;10.85;;;4.22;;
65581;SDS011;52231;40.090;18.348;2023-06-10T10:08:28;9.73;;;4.10;;
65581;SDS011;52231;40.090;18.348;2023-06-10T10:10:56;9.10;;;4.35;;
65581;SDS011;52231;40.090;18.348;2023-06-10T10:13:25;7.80;;;3.58;;
65581;SDS011;52231;40.090;18.348;2023-06-10T10:15:56;11.07;;;4.32;;
65581;SDS011;52231;40.090;18.348;2023-06-10T10:18:31;6.93;;;4.03;;
65581;SDS011;52231;40.090;18.348;2023-06-10T10:21:01;9.73;;;4.63;;
65581;SDS011;52231;40.090;18.348;2023-06-10T10:26:09;10.32;;;4.20;;
65581;SDS011;52231;40.090;18.348;2023-06-10T10:28:44;7.45;;;3.90;;
65581;SDS011;52231;40.090;18.348;2023-06-10T10:31:18;7.45;;;4.35;;
65581;SDS011;52231;40.090;18.348;2023-06-10T10:33:51;6.93;;;3.88;;
65581;SDS011;52231;40.090;18.348;2023-06-10T10:36:27;8.85;;;3.88;;
65581;SDS011;52231;40.090;18.348;2023-06-10T10:38:55;6.35;;;3.50;;
65581;SDS011;52231;40.090;18.348;2023-06-10T10:41:25;6.68;;;3.13;;
65581;SDS011;52231;40.090;18.348;2023-06-10T10:43:54;7.15;;;3.03;;
65581;SDS011;52231;40.090;18.348;2023-06-10T10:46:24;7.13;;;3.55;;
65581;SDS011;52231;40.090;18.348;2023-06-10T10:48:53;11.05;;;6.45;;
65581;SDS011;52231;40.090;18.348;2023-06-10T10:51:22;6.95;;;3.70;;
65581;SDS011;52231;40.090;18.348;2023-06-10T10:54:11;8.93;;;3.97;;
65581;SDS011;52231;40.090;18.348;2023-06-10T11:05:56;8.00;;;3.33;;
65581;SDS011;52231;40.090;18.348;2023-06-10T11:10:59;7.65;;;3.53;;
65581;SDS011;52231;40.090;18.348;2023-06-10T11:13:28;8.48;;;3.42;;
65581;SDS011;52231;40.090;18.348;2023-06-10T11:15:58;8.50;;;3.72;;
65581;SDS011;52231;40.090;18.348;2023-06-10T11:18:29;9.30;;;4.15;;
65581;SDS011;52231;40.090;18.348;2023-06-10T11:21:00;8.68;;;3.75;;
65581;SDS011;52231;40.090;18.348;2023-06-10T15:05:51;7.82;;;3.72;;
65581;SDS011;52231;40.090;18.348;2023-06-10T15:08:20;7.32;;;3.80;;
65581;SDS011;52231;40.090;18.348;2023-06-10T15:10:49;7.18;;;3.58;;
65581;SDS011;52231;40.090;18.348;2023-06-10T15:13:21;9.98;;;3.88;;
65581;SDS011;52231;40.090;18.348;2023-06-10T15:15:49;7.57;;;4.00;;
65581;SDS011;52231;40.090;18.348;2023-06-10T15:18:19;8.48;;;3.10;;
65581;SDS011;52231;40.090;18.348;2023-06-10T15:20:48;7.50;;;3.70;;
65581;SDS011;52231;40.090;18.348;2023-06-10T15:23:16;8.50;;;3.00;;
65581;SDS011;52231;40.090;18.348;2023-06-10T15:25:45;9.20;;;3.92;;
65581;SDS011;52231;40.090;18.348;2023-06-10T15:28:14;11.80;;;3.70;;
65581;SDS011;52231;40.090;18.348;2023-06-10T15:30:45;8.02;;;3.45;;
65581;SDS011;52231;40.090;18.348;2023-06-10T15:33:14;7.70;;;3.28;;
65581;SDS011;52231;40.090;18.348;2023-06-10T15:35:43;7.55;;;3.10;;
65581;SDS011;52231;40.090;18.348;2023-06-10T15:38:11;9.68;;;3.28;;
65581;SDS011;52231;40.090;18.348;2023-06-10T15:40:43;8.25;;;3.53;;
65581;SDS011;52231;40.090;18.348;2023-06-10T15:43:12;7.53;;;3.50;;
65581;SDS011;52231;40.090;18.348;2023-06-10T15:45:41;5.93;;;2.95;;
65581;SDS011;52231;40.090;18.348;2023-06-10T15:48:09;6.85;;;3.40;;
65581;SDS011;52231;40.090;18.348;2023-06-10T15:50:37;7.07;;;3.10;;
65581;SDS011;52231;40.090;18.348;2023-06-10T15:53:06;6.75;;;2.92;;
65581;SDS011;52231;40.090;18.348;2023-06-10T15:55:34;6.85;;;2.88;;
65581;SDS011;52231;40.090;18.348;2023-06-10T15:58:02;7.18;;;3.10;;
65581;SDS011;52231;40.090;18.348;2023-06-10T16:00:31;6.00;;;3.42;;
65581;SDS011;52231;40.090;18.348;2023-06-10T16:02:59;6.90;;;3.22;;
65581;SDS011;52231;40.090;18.348;2023-06-10T16:05:28;7.68;;;3.28;;
65581;SDS011;52231;40.090;18.348;2023-06-10T16:07:56;6.05;;;3.35;;
65581;SDS011;52231;40.090;18.348;2023-06-10T16:10:26;6.88;;;3.17;;
65581;SDS011;52231;40.090;18.348;2023-06-10T16:12:55;6.15;;;3.17;;
65581;SDS011;52231;40.090;18.348;2023-06-10T16:15:24;8.23;;;2.80;;
65581;SDS011;52231;40.090;18.348;2023-06-10T16:17:52;6.03;;;3.25;;
65581;SDS011;52231;40.090;18.348;2023-06-10T16:20:21;6.25;;;3.65;;
65581;SDS011;52231;40.090;18.348;2023-06-10T16:22:50;6.13;;;2.83;;
65581;SDS011;52231;40.090;18.348;2023-06-10T16:25:18;7.07;;;3.35;;
65581;SDS011;52231;40.090;18.348;2023-06-10T16:27:47;8.10;;;3.40;;
65581;SDS011;52231;40.090;18.348;2023-06-10T16:30:15;8.75;;;3.55;;
65581;SDS011;52231;40.090;18.348;2023-06-10T16:32:44;9.30;;;3.88;;
65581;SDS011;52231;40.090;18.348;2023-06-10T16:35:12;7.80;;;3.30;;
65581;SDS011;52231;40.090;18.348;2023-06-10T16:37:41;6.95;;;3.75;;
65581;SDS011;52231;40.090;18.348;2023-06-10T16:40:12;6.38;;;2.92;;
65581;SDS011;52231;40.090;18.348;2023-06-10T16:42:43;5.57;;;3.28;;
65581;SDS011;52231;40.090;18.348;2023-06-10T16:45:12;7.35;;;3.75;;
65581;SDS011;52231;40.090;18.348;2023-06-10T16:47:41;8.63;;;3.67;;
65581;SDS011;52231;40.090;18.348;2023-06-10T16:50:09;6.75;;;3.72;;
65581;SDS011;52231;40.090;18.348;2023-06-10T16:52:38;10.45;;;3.80;;
65581;SDS011;52231;40.090;18.348;2023-06-10T16:55:07;8.35;;;3.22;;
65581;SDS011;52231;40.090;18.348;2023-06-10T16:57:36;7.85;;;3.80;;
65581;SDS011;52231;40.090;18.348;2023-06-10T17:00:05;9.80;;;3.88;;
65581;SDS011;52231;40.090;18.348;2023-06-10T17:02:34;6.72;;;3.33;;
65581;SDS011;52231;40.090;18.348;2023-06-10T17:05:03;8.07;;;3.50;;
65581;SDS011;52231;40.090;18.348;2023-06-10T17:07:32;10.25;;;3.10;;
65581;SDS011;52231;40.090;18.348;2023-06-10T17:10:01;8.55;;;3.58;;
65581;SDS011;52231;40.090;18.348;2023-06-10T17:12:31;8.50;;;4.00;;
65581;SDS011;52231;40.090;18.348;2023-06-10T17:15:00;9.10;;;4.35;;
65581;SDS011;52231;40.090;18.348;2023-06-10T17:17:28;10.50;;;3.53;;
65581;SDS011;52231;40.090;18.348;2023-06-10T17:19:57;9.15;;;4.25;;
65581;SDS011;52231;40.090;18.348;2023-06-10T17:22:25;10.73;;;4.03;;
65581;SDS011;52231;40.090;18.348;2023-06-10T17:24:54;9.57;;;4.72;;
65581;SDS011;52231;40.090;18.348;2023-06-10T17:27:22;10.90;;;4.60;;
65581;SDS011;52231;40.090;18.348;2023-06-10T17:29:52;10.57;;;4.60;;
65581;SDS011;52231;40.090;18.348;2023-06-10T17:32:20;11.85;;;4.97;;
65581;SDS011;52231;40.090;18.348;2023-06-10T17:34:49;12.48;;;5.05;;
65581;SDS011;52231;40.090;18.348;2023-06-10T17:37:17;10.27;;;4.57;;
65581;SDS011;52231;40.090;18.348;2023-06-10T17:39:46;9.23;;;4.05;;
65581;SDS011;52231;40.090;18.348;2023-06-10T17:42:15;9.55;;;4.05;;
65581;SDS011;52231;40.090;18.348;2023-06-10T17:44:43;9.85;;;4.30;;
65581;SDS011;52231;40.090;18.348;2023-06-10T17:47:12;10.35;;;5.10;;
65581;SDS011;52231;40.090;18.348;2023-06-10T17:49:41;13.52;;;4.80;;
65581;SDS011;52231;40.090;18.348;2023-06-10T17:52:10;11.00;;;5.07;;
65581;SDS011;52231;40.090;18.348;2023-06-10T17:54:44;13.88;;;4.85;;
65581;SDS011;52231;40.090;18.348;2023-06-10T17:57:13;12.57;;;5.13;;
65581;SDS011;52231;40.090;18.348;2023-06-10T17:59:43;8.60;;;4.43;;
65581;SDS011;52231;40.090;18.348;2023-06-10T18:02:14;8.48;;;4.00;;
65581;SDS011;52231;40.090;18.348;2023-06-10T18:04:48;11.65;;;4.57;;
65581;SDS011;52231;40.090;18.348;2023-06-10T18:07:16;9.13;;;4.10;;
65581;SDS011;52231;40.090;18.348;2023-06-10T18:09:47;12.45;;;4.63;;
65581;SDS011;52231;40.090;18.348;2023-06-10T18:12:16;10.27;;;4.70;;
65581;SDS011;52231;40.090;18.348;2023-06-10T18:14:44;10.65;;;3.72;;
65581;SDS011;52231;40.090;18.348;2023-06-10T18:17:13;10.80;;;4.25;;
65581;SDS011;52231;40.090;18.348;2023-06-10T18:22:09;10.13;;;4.10;;
65581;SDS011;52231;40.090;18.348;2023-06-10T18:24:38;8.82;;;4.35;;
65581;SDS011;52231;40.090;18.348;2023-06-10T18:27:07;11.35;;;4.75;;
65581;SDS011;52231;40.090;18.348;2023-06-10T18:29:37;10.82;;;4.20;;
65581;SDS011;52231;40.090;18.348;2023-06-10T18:32:05;11.55;;;5.30;;
65581;SDS011;52231;40.090;18.348;2023-06-10T18:34:35;11.05;;;5.20;;
65581;SDS011;52231;40.090;18.348;2023-06-10T18:37:05;12.30;;;5.28;;
65581;SDS011;52231;40.090;18.348;2023-06-10T18:39:35;8.45;;;4.57;;
65581;SDS011;52231;40.090;18.348;2023-06-10T18:42:03;9.98;;;5.60;;
65581;SDS011;52231;40.090;18.348;2023-06-10T18:44:37;10.95;;;4.38;;
65581;SDS011;52231;40.090;18.348;2023-06-10T18:47:14;11.50;;;4.78;;
65581;SDS011;52231;40.090;18.348;2023-06-10T18:49:49;9.65;;;4.78;;
65581;SDS011;52231;40.090;18.348;2023-06-10T18:52:18;10.32;;;5.07;;
65581;SDS011;52231;40.090;18.348;2023-06-10T18:54:48;12.07;;;4.68;;
65581;SDS011;52231;40.090;18.348;2023-06-10T18:57:17;14.25;;;6.25;;
65581;SDS011;52231;40.090;18.348;2023-06-10T18:59:46;13.07;;;5.85;;
65581;SDS011;52231;40.090;18.348;2023-06-10T19:02:16;14.38;;;6.40;;
65581;SDS011;52231;40.090;18.348;2023-06-10T19:04:45;16.83;;;7.47;;
65581;SDS011;52231;40.090;18.348;2023-06-10T19:07:14;15.75;;;6.78;;
65581;SDS011;52231;40.090;18.348;2023-06-10T19:09:44;16.48;;;8.65;;
65581;SDS011;52231;40.090;18.348;2023-06-10T19:12:13;19.88;;;9.68;;